sensor_id;sensor_type;location;lat;lon;timestamp;pressure;altitude;pressure_sealevel;temperature;humidity
1736;BME280;865;53.672;10.250;2024-02-15T00:01:49;100899.66;;;10.36;100.00
1736;BME280;865;53.672;10.250;2024-02-15T00:04:16;100903.84;;;10.44;100.00
1736;BME280;865;53.672;10.250;2024-02-15T00:06:44;100903.75;;;10.51;100.00
1736;BME280;865;53.672;10.250;2024-02-15T00:09:10;100897.59;;;10.55;100.00
1736;BME280;865;53.672;10.250;2024-02-15T00:11:37;100901.09;;;10.52;100.00
1736;BME280;865;53.672;10.250;2024-02-15T00:14:05;100900.19;;;10.55;100.00
1736;BME280;865;53.672;10.250;2024-02-15T00:16:32;100899.25;;;10.59;100.00
1736;BME280;865;53.672;10.250;2024-02-15T00:18:58;100902.63;;;10.65;100.00
1736;BME280;865;53.672;10.250;2024-02-15T00:21:26;100898.25;;;10.66;100.00
1736;BME280;865;53.672;10.250;2024-02-15T00:23:52;100891.22;;;10.71;100.00
1736;BME280;865;53.672;10.250;2024-02-15T00:26:22;100894.69;;;10.71;100.00
1736;BME280;865;53.672;10.250;2024-02-15T00:28:48;100899.88;;;10.73;100.00
1736;BME280;865;53.672;10.250;2024-02-15T00:31:15;100896.56;;;10.62;100.00
1736;BME280;865;53.672;10.250;2024-02-15T00:33:41;100892.25;;;10.62;100.00
1736;BME280;865;53.672;10.250;2024-02-15T00:36:10;100891.34;;;10.63;100.00
1736;BME280;865;53.672;10.250;2024-02-15T00:38:36;100892.53;;;10.44;100.00
1736;BME280;865;53.672;10.250;2024-02-15T00:41:04;100885.44;;;10.52;100.00
1736;BME280;865;53.672;10.250;2024-02-15T00:43:34;100881.66;;;10.70;100.00
1736;BME280;865;53.672;10.250;2024-02-15T00:46:02;100879.16;;;10.64;100.00
1736;BME280;865;53.672;10.250;2024-02-15T00:48:29;100873.03;;;10.66;100.00
1736;BME280;865;53.672;10.250;2024-02-15T00:50:56;100869.53;;;10.67;100.00
1736;BME280;865;53.672;10.250;2024-02-15T00:53:23;100866.16;;;10.62;100.00
1736;BME280;865;53.672;10.250;2024-02-15T00:55:49;100861.00;;;10.59;100.00
1736;BME280;865;53.672;10.250;2024-02-15T00:58:16;100863.50;;;10.64;100.00
1736;BME280;865;53.672;10.250;2024-02-15T01:00:42;100858.41;;;10.58;100.00
1736;BME280;865;53.672;10.250;2024-02-15T01:03:09;100856.66;;;10.58;100.00
1736;BME280;865;53.672;10.250;2024-02-15T01:05:35;100846.28;;;10.55;100.00
1736;BME280;865;53.672;10.250;2024-02-15T01:08:02;100846.19;;;10.60;100.00
1736;BME280;865;53.672;10.250;2024-02-15T01:10:28;100852.31;;;10.57;100.00
1736;BME280;865;53.672;10.250;2024-02-15T01:12:54;100842.81;;;10.55;100.00
1736;BME280;865;53.672;10.250;2024-02-15T01:15:21;100840.03;;;10.64;100.00
1736;BME280;865;53.672;10.250;2024-02-15T01:17:48;100834.69;;;10.71;100.00
1736;BME280;865;53.672;10.250;2024-02-15T01:20:15;100837.41;;;10.65;100.00
1736;BME280;865;53.672;10.250;2024-02-15T01:22:41;100832.91;;;10.72;100.00
1736;BME280;865;53.672;10.250;2024-02-15T01:25:08;100833.00;;;10.67;100.00
1736;BME280;865;53.672;10.250;2024-02-15T01:27:35;100828.66;;;10.68;100.00
1736;BME280;865;53.672;10.250;2024-02-15T01:30:02;100830.38;;;10.67;100.00
1736;BME280;865;53.672;10.250;2024-02-15T01:32:30;100827.75;;;10.69;100.00
1736;BME280;865;53.672;10.250;2024-02-15T01:34:57;100829.41;;;10.75;100.00
1736;BME280;865;53.672;10.250;2024-02-15T01:37:24;100824.19;;;10.73;100.00
1736;BME280;865;53.672;10.250;2024-02-15T01:39:51;100814.47;;;10.81;100.00
1736;BME280;865;53.672;10.250;2024-02-15T01:42:18;100832.66;;;10.86;100.00
1736;BME280;865;53.672;10.250;2024-02-15T01:44:45;100832.69;;;10.84;100.00
1736;BME280;865;53.672;10.250;2024-02-15T01:47:14;100829.88;;;10.93;100.00
1736;BME280;865;53.672;10.250;2024-02-15T01:49:40;100839.59;;;10.87;100.00
1736;BME280;865;53.672;10.250;2024-02-15T01:52:07;100837.00;;;10.87;100.00
1736;BME280;865;53.672;10.250;2024-02-15T01:54:35;100836.94;;;10.90;100.00
1736;BME280;865;53.672;10.250;2024-02-15T01:57:03;100843.84;;;10.92;100.00
1736;BME280;865;53.672;10.250;2024-02-15T01:59:30;100841.13;;;10.97;100.00
1736;BME280;865;53.672;10.250;2024-02-15T02:01:57;100842.09;;;10.91;100.00
1736;BME280;865;53.672;10.250;2024-02-15T02:04:23;100849.84;;;10.96;100.00
1736;BME280;865;53.672;10.250;2024-02-15T02:06:50;100856.00;;;10.93;100.00
1736;BME280;865;53.672;10.250;2024-02-15T02:09:16;100860.44;;;10.88;100.00
1736;BME280;865;53.672;10.250;2024-02-15T02:11:44;100851.56;;;10.97;100.00
1736;BME280;865;53.672;10.250;2024-02-15T02:14:12;100857.94;;;10.84;100.00
1736;BME280;865;53.672;10.250;2024-02-15T02:16:39;100854.69;;;10.71;100.00
1736;BME280;865;53.672;10.250;2024-02-15T02:19:05;100845.06;;;10.75;100.00
1736;BME280;865;53.672;10.250;2024-02-15T02:21:36;100838.03;;;10.77;100.00
1736;BME280;865;53.672;10.250;2024-02-15T02:24:03;100840.44;;;10.87;100.00
1736;BME280;865;53.672;10.250;2024-02-15T02:26:34;100836.13;;;10.86;100.00
1736;BME280;865;53.672;10.250;2024-02-15T02:29:00;100833.66;;;10.79;100.00
1736;BME280;865;53.672;10.250;2024-02-15T02:31:34;100830.91;;;10.86;100.00
1736;BME280;865;53.672;10.250;2024-02-15T02:34:01;100828.38;;;10.82;100.00
1736;BME280;865;53.672;10.250;2024-02-15T02:36:27;100835.41;;;10.78;100.00
1736;BME280;865;53.672;10.250;2024-02-15T02:38:55;100825.88;;;10.77;100.00
1736;BME280;865;53.672;10.250;2024-02-15T02:41:27;100826.75;;;10.76;100.00
1736;BME280;865;53.672;10.250;2024-02-15T02:43:57;100828.44;;;10.80;100.00
1736;BME280;865;53.672;10.250;2024-02-15T02:46:24;100831.84;;;10.82;100.00
1736;BME280;865;53.672;10.250;2024-02-15T02:48:50;100835.34;;;10.81;100.00
1736;BME280;865;53.672;10.250;2024-02-15T02:51:18;100836.22;;;10.82;100.00
1736;BME280;865;53.672;10.250;2024-02-15T02:53:44;100831.91;;;10.79;100.00
1736;BME280;865;53.672;10.250;2024-02-15T02:56:11;100835.41;;;10.78;100.00
1736;BME280;865;53.672;10.250;2024-02-15T02:58:38;100831.97;;;10.76;100.00
1736;BME280;865;53.672;10.250;2024-02-15T03:01:09;100824.19;;;10.73;100.00
1736;BME280;865;53.672;10.250;2024-02-15T03:03:35;100818.97;;;10.75;100.00
1736;BME280;865;53.672;10.250;2024-02-15T03:06:02;100819.88;;;10.72;100.00
1736;BME280;865;53.672;10.250;2024-02-15T03:08:28;100809.34;;;10.77;100.00
1736;BME280;865;53.672;10.250;2024-02-15T03:10:55;100813.09;;;10.63;100.00
1736;BME280;865;53.672;10.250;2024-02-15T03:13:22;100808.47;;;10.76;100.00
1736;BME280;865;53.672;10.250;2024-02-15T03:15:48;100798.09;;;10.75;100.00
1736;BME280;865;53.672;10.250;2024-02-15T03:18:15;100795.38;;;10.79;100.00
1736;BME280;865;53.672;10.250;2024-02-15T03:20:43;100797.97;;;10.81;100.00
1736;BME280;865;53.672;10.250;2024-02-15T03:23:09;100805.75;;;10.82;100.00
1736;BME280;865;53.672;10.250;2024-02-15T03:25:37;100810.13;;;10.82;100.00
1736;BME280;865;53.672;10.250;2024-02-15T03:28:04;100814.34;;;10.87;100.00
1736;BME280;865;53.672;10.250;2024-02-15T03:30:32;100815.13;;;10.92;100.00
1736;BME280;865;53.672;10.250;2024-02-15T03:33:01;100821.28;;;10.90;100.00
1736;BME280;865;53.672;10.250;2024-02-15T03:35:31;100823.88;;;10.90;100.00
1736;BME280;865;53.672;10.250;2024-02-15T03:37:58;100832.66;;;10.86;100.00
1736;BME280;865;53.672;10.250;2024-02-15T03:40:25;100829.22;;;10.84;100.00
1736;BME280;865;53.672;10.250;2024-02-15T03:42:55;100837.00;;;10.87;100.00
1736;BME280;865;53.672;10.250;2024-02-15T03:45:22;100833.53;;;10.85;100.00
1736;BME280;865;53.672;10.250;2024-02-15T03:47:52;100832.88;;;10.75;100.00
1736;BME280;865;53.672;10.250;2024-02-15T03:50:19;100832.66;;;10.86;100.00
1736;BME280;865;53.672;10.250;2024-02-15T03:52:48;100831.59;;;10.94;100.00
1736;BME280;865;53.672;10.250;2024-02-15T03:55:15;100833.47;;;10.89;100.00
1736;BME280;865;53.672;10.250;2024-02-15T03:57:41;100848.22;;;10.92;100.00
1736;BME280;865;53.672;10.250;2024-02-15T04:00:12;100838.56;;;10.94;100.00
1736;BME280;865;53.672;10.250;2024-02-15T04:02:41;100839.63;;;10.85;100.00
1736;BME280;865;53.672;10.250;2024-02-15T04:05:09;100838.69;;;10.89;100.00
1736;BME280;865;53.672;10.250;2024-02-15T04:07:37;100832.56;;;10.90;100.00
1736;BME280;865;53.672;10.250;2024-02-15T04:10:04;100838.75;;;10.85;100.00
1736;BME280;865;53.672;10.250;2024-02-15T04:12:31;100831.78;;;10.85;100.00
1736;BME280;865;53.672;10.250;2024-02-15T04:14:58;100828.25;;;10.89;100.00
1736;BME280;865;53.672;10.250;2024-02-15T04:17:32;100823.81;;;10.93;100.00
1736;BME280;865;53.672;10.250;2024-02-15T04:20:01;100826.38;;;10.94;100.00
1736;BME280;865;53.672;10.250;2024-02-15T04:22:30;100825.56;;;10.92;100.00
1736;BME280;865;53.672;10.250;2024-02-15T04:25:07;100829.97;;;10.90;100.00
1736;BME280;865;53.672;10.250;2024-02-15T04:27:36;100831.91;;;10.79;100.00
1736;BME280;865;53.672;10.250;2024-02-15T04:30:03;100816.88;;;10.92;100.00
1736;BME280;865;53.672;10.250;2024-02-15T04:32:30;100815.16;;;10.91;100.00
1736;BME280;865;53.672;10.250;2024-02-15T04:35:00;100819.56;;;10.87;100.00
1736;BME280;865;53.672;10.250;2024-02-15T04:37:28;100827.34;;;10.92;100.00
1736;BME280;865;53.672;10.250;2024-02-15T04:39:56;100835.22;;;10.87;100.00
1736;BME280;865;53.672;10.250;2024-02-15T04:42:22;100833.59;;;10.83;100.00
1736;BME280;865;53.672;10.250;2024-02-15T04:44:52;100834.38;;;10.87;100.00
1736;BME280;865;53.672;10.250;2024-02-15T04:47:20;100826.50;;;10.88;100.00
1736;BME280;865;53.672;10.250;2024-02-15T04:49:47;100833.41;;;10.92;100.00
1736;BME280;865;53.672;10.250;2024-02-15T04:52:13;100831.66;;;10.91;100.00
1736;BME280;865;53.672;10.250;2024-02-15T04:54:40;100837.16;;;10.78;100.00
1736;BME280;865;53.672;10.250;2024-02-15T04:57:07;100834.50;;;10.81;100.00
1736;BME280;865;53.672;10.250;2024-02-15T04:59:35;100836.13;;;10.86;100.00
1736;BME280;865;53.672;10.250;2024-02-15T05:02:01;100838.03;;;10.78;100.00
1736;BME280;865;53.672;10.250;2024-02-15T05:04:28;100844.03;;;10.83;100.00
1736;BME280;865;53.672;10.250;2024-02-15T05:06:54;100836.16;;;10.85;100.00
1736;BME280;865;53.672;10.250;2024-02-15T05:09:22;100848.38;;;10.83;100.00
1736;BME280;865;53.672;10.250;2024-02-15T05:11:49;100850.00;;;10.88;100.00
1736;BME280;865;53.672;10.250;2024-02-15T05:14:16;100840.38;;;10.92;100.00
1736;BME280;865;53.672;10.250;2024-02-15T05:16:46;100843.84;;;10.92;100.00
1736;BME280;865;53.672;10.250;2024-02-15T05:19:17;100843.78;;;10.94;100.00
1736;BME280;865;53.672;10.250;2024-02-15T05:21:47;100840.34;;;10.93;100.00
1736;BME280;865;53.672;10.250;2024-02-15T05:24:15;100847.22;;;10.98;100.00
1736;BME280;865;53.672;10.250;2024-02-15T05:26:44;100845.59;;;10.92;100.00
1736;BME280;865;53.672;10.250;2024-02-15T05:29:13;100835.88;;;10.99;100.00
1736;BME280;865;53.672;10.250;2024-02-15T05:31:40;100834.13;;;11.01;100.00
1736;BME280;865;53.672;10.250;2024-02-15T05:34:07;100846.34;;;10.99;100.00
1736;BME280;865;53.672;10.250;2024-02-15T05:36:35;100834.19;;;10.96;100.00
1736;BME280;865;53.672;10.250;2024-02-15T05:39:02;100834.06;;;11.02;100.00
1736;BME280;865;53.672;10.250;2024-02-15T05:41:29;100835.84;;;11.00;100.00
1736;BME280;865;53.672;10.250;2024-02-15T05:43:56;100836.03;;;10.91;100.00
1736;BME280;865;53.672;10.250;2024-02-15T05:46:24;100835.00;;;11.00;100.00
1736;BME280;865;53.672;10.250;2024-02-15T05:48:51;100831.41;;;11.05;100.00
1736;BME280;865;53.672;10.250;2024-02-15T05:51:21;100835.78;;;11.03;100.00
1736;BME280;865;53.672;10.250;2024-02-15T05:53:48;100842.81;;;11.00;100.00
1736;BME280;865;53.672;10.250;2024-02-15T05:56:15;100837.59;;;11.01;100.00
1736;BME280;865;53.672;10.250;2024-02-15T05:58:42;100846.22;;;11.03;100.00
1736;BME280;865;53.672;10.250;2024-02-15T06:01:09;100841.16;;;10.95;100.00
1736;BME280;865;53.672;10.250;2024-02-15T06:03:39;100854.25;;;10.94;100.00
1736;BME280;865;53.672;10.250;2024-02-15T06:06:06;100847.16;;;11.01;100.00
1736;BME280;865;53.672;10.250;2024-02-15T06:08:34;100843.59;;;11.05;100.00
1736;BME280;865;53.672;10.250;2024-02-15T06:11:01;100847.97;;;11.04;100.00
1736;BME280;865;53.672;10.250;2024-02-15T06:13:28;100853.44;;;10.92;100.00
1736;BME280;865;53.672;10.250;2024-02-15T06:15:54;100860.28;;;10.96;100.00
1736;BME280;865;53.672;10.250;2024-02-15T06:18:22;100863.75;;;10.98;100.00
1736;BME280;865;53.672;10.250;2024-02-15T06:20:51;100867.81;;;11.13;100.00
1736;BME280;865;53.672;10.250;2024-02-15T06:23:20;100867.81;;;11.11;100.00
1736;BME280;865;53.672;10.250;2024-02-15T06:25:47;100871.53;;;11.00;100.00
1736;BME280;865;53.672;10.250;2024-02-15T06:28:14;100876.56;;;11.10;100.00
1736;BME280;865;53.672;10.250;2024-02-15T06:31:00;100871.28;;;11.12;100.00
1736;BME280;865;53.672;10.250;2024-02-15T06:33:45;100873.97;;;11.09;100.00
1736;BME280;865;53.672;10.250;2024-02-15T06:36:30;100881.97;;;11.00;100.00
1736;BME280;865;53.672;10.250;2024-02-15T06:39:15;100892.56;;;10.92;100.00
1736;BME280;865;53.672;10.250;2024-02-15T06:42:00;100886.31;;;11.01;100.00
1736;BME280;865;53.672;10.250;2024-02-15T06:44:27;100881.84;;;11.06;100.00
1736;BME280;865;53.672;10.250;2024-02-15T06:46:54;100878.25;;;11.13;100.00
1736;BME280;865;53.672;10.250;2024-02-15T06:49:20;100888.66;;;11.14;100.00
1736;BME280;865;53.672;10.250;2024-02-15T06:51:48;100888.75;;;11.10;100.00
1736;BME280;865;53.672;10.250;2024-02-15T06:54:15;100889.59;;;11.10;100.00
1736;BME280;865;53.672;10.250;2024-02-15T06:56:44;100894.78;;;11.13;100.00
1736;BME280;865;53.672;10.250;2024-02-15T06:59:13;100896.53;;;11.13;100.00
1736;BME280;865;53.672;10.250;2024-02-15T07:01:44;100899.16;;;11.11;100.00
1736;BME280;865;53.672;10.250;2024-02-15T07:04:11;100899.19;;;11.10;100.00
1736;BME280;865;53.672;10.250;2024-02-15T07:06:38;100896.34;;;11.21;100.00
1736;BME280;865;53.672;10.250;2024-02-15T07:09:05;100898.06;;;11.23;100.00
1736;BME280;865;53.672;10.250;2024-02-15T07:11:33;100914.56;;;11.25;100.00
1736;BME280;865;53.672;10.250;2024-02-15T07:14:01;100913.97;;;11.11;100.00
1736;BME280;865;53.672;10.250;2024-02-15T07:16:28;100911.34;;;11.11;100.00
1736;BME280;865;53.672;10.250;2024-02-15T07:18:55;100905.22;;;11.12;100.00
1736;BME280;865;53.672;10.250;2024-02-15T07:21:22;100915.91;;;11.01;100.00
1736;BME280;865;53.672;10.250;2024-02-15T07:23:56;100910.56;;;11.07;100.00
1736;BME280;865;53.672;10.250;2024-02-15T07:26:23;100900.06;;;11.10;100.00
1736;BME280;865;53.672;10.250;2024-02-15T07:28:53;100906.97;;;11.13;100.00
1736;BME280;865;53.672;10.250;2024-02-15T07:31:20;100906.97;;;11.13;100.00
1736;BME280;865;53.672;10.250;2024-02-15T07:33:48;100907.09;;;11.07;100.00
1736;BME280;865;53.672;10.250;2024-02-15T07:36:22;100905.41;;;11.04;100.00
1736;BME280;865;53.672;10.250;2024-02-15T07:38:50;100909.53;;;11.16;100.00
1736;BME280;865;53.672;10.250;2024-02-15T07:41:17;100919.84;;;11.22;100.00
1736;BME280;865;53.672;10.250;2024-02-15T07:43:48;100914.63;;;11.22;100.00
1736;BME280;865;53.672;10.250;2024-02-15T07:46:16;100924.16;;;11.23;100.00
1736;BME280;865;53.672;10.250;2024-02-15T07:48:43;100917.94;;;11.30;100.00
1736;BME280;865;53.672;10.250;2024-02-15T07:51:17;100920.09;;;11.10;100.00
1736;BME280;865;53.672;10.250;2024-02-15T07:53:45;100936.38;;;11.21;100.00
1736;BME280;865;53.672;10.250;2024-02-15T07:56:13;100924.09;;;11.28;100.00
1736;BME280;865;53.672;10.250;2024-02-15T07:58:41;100932.00;;;11.23;100.00
1736;BME280;865;53.672;10.250;2024-02-15T08:01:08;100930.22;;;11.25;100.00
1736;BME280;865;53.672;10.250;2024-02-15T08:03:38;100931.09;;;11.26;100.00
1736;BME280;865;53.672;10.250;2024-02-15T08:06:09;100935.28;;;11.34;100.00
1736;BME280;865;53.672;10.250;2024-02-15T08:08:35;100934.34;;;11.37;100.00
1736;BME280;865;53.672;10.250;2024-02-15T08:11:02;100930.72;;;11.44;100.00
1736;BME280;865;53.672;10.250;2024-02-15T08:13:29;100938.59;;;11.43;100.00
1736;BME280;865;53.672;10.250;2024-02-15T08:15:56;100939.38;;;11.46;100.00
1736;BME280;865;53.672;10.250;2024-02-15T08:18:22;100940.84;;;11.16;100.00
1736;BME280;865;53.672;10.250;2024-02-15T08:20:49;100938.94;;;11.24;100.00
1736;BME280;865;53.672;10.250;2024-02-15T08:23:16;100937.94;;;11.31;100.00
1736;BME280;865;53.672;10.250;2024-02-15T08:25:42;100941.44;;;11.30;100.00
1736;BME280;865;53.672;10.250;2024-02-15T08:28:09;100944.94;;;11.29;100.00
1736;BME280;865;53.672;10.250;2024-02-15T08:30:36;100944.09;;;11.27;100.00
1736;BME280;865;53.672;10.250;2024-02-15T08:33:03;100947.50;;;11.32;100.00
1736;BME280;865;53.672;10.250;2024-02-15T08:35:30;100942.25;;;11.32;100.00
1736;BME280;865;53.672;10.250;2024-02-15T08:37:59;100942.13;;;11.38;100.00
1736;BME280;865;53.672;10.250;2024-02-15T08:40:25;100941.16;;;11.46;100.00
1736;BME280;865;53.672;10.250;2024-02-15T08:42:52;100941.34;;;11.36;100.00
1736;BME280;865;53.672;10.250;2024-02-15T08:45:19;100945.53;;;11.44;100.00
1736;BME280;865;53.672;10.250;2024-02-15T08:47:46;100949.72;;;11.51;100.00
1736;BME280;865;53.672;10.250;2024-02-15T08:50:16;100949.78;;;11.48;100.00
1736;BME280;865;53.672;10.250;2024-02-15T08:52:44;100953.25;;;11.50;100.00
1736;BME280;865;53.672;10.250;2024-02-15T08:55:11;100947.19;;;11.48;100.00
1736;BME280;865;53.672;10.250;2024-02-15T08:57:41;100941.94;;;11.49;100.00
1736;BME280;865;53.672;10.250;2024-02-15T09:00:09;100943.50;;;11.58;100.00
1736;BME280;865;53.672;10.250;2024-02-15T09:02:41;100938.34;;;11.55;100.00
1736;BME280;865;53.672;10.250;2024-02-15T09:05:07;100941.59;;;11.66;100.00
1736;BME280;865;53.672;10.250;2024-02-15T09:07:34;100938.84;;;11.72;100.00
1736;BME280;865;53.672;10.250;2024-02-15T09:10:03;100939.06;;;11.63;100.00
1736;BME280;865;53.672;10.250;2024-02-15T09:12:30;100936.09;;;11.78;100.00
1736;BME280;865;53.672;10.250;2024-02-15T09:14:57;100945.59;;;11.82;100.00
1736;BME280;865;53.672;10.250;2024-02-15T09:17:24;100944.00;;;11.75;100.00
1736;BME280;865;53.672;10.250;2024-02-15T09:19:52;100941.47;;;11.72;100.00
1736;BME280;865;53.672;10.250;2024-02-15T09:22:19;100943.78;;;11.86;100.00
1736;BME280;865;53.672;10.250;2024-02-15T09:24:46;100949.91;;;11.83;100.00
1736;BME280;865;53.672;10.250;2024-02-15T09:27:12;100951.63;;;11.86;100.00
1736;BME280;865;53.672;10.250;2024-02-15T09:29:39;100955.03;;;11.90;100.00
1736;BME280;865;53.672;10.250;2024-02-15T09:32:07;100960.13;;;11.97;100.00
1736;BME280;865;53.672;10.250;2024-02-15T09:34:33;100963.50;;;12.01;100.00
1736;BME280;865;53.672;10.250;2024-02-15T09:37:00;100958.34;;;11.98;100.00
1736;BME280;865;53.672;10.250;2024-02-15T09:39:26;100957.50;;;11.97;100.00
1736;BME280;865;53.672;10.250;2024-02-15T09:41:53;100960.97;;;11.98;100.00
1736;BME280;865;53.672;10.250;2024-02-15T09:44:25;100950.97;;;11.75;100.00
1736;BME280;865;53.672;10.250;2024-02-15T09:47:05;100947.44;;;11.77;100.00
1736;BME280;865;53.672;10.250;2024-02-15T09:49:39;100945.59;;;11.82;100.00
1736;BME280;865;53.672;10.250;2024-02-15T09:52:07;100950.81;;;11.82;100.00
1736;BME280;865;53.672;10.250;2024-02-15T09:54:41;100948.31;;;11.78;100.00
1736;BME280;865;53.672;10.250;2024-02-15T09:57:11;100942.97;;;11.82;100.00
1736;BME280;865;53.672;10.250;2024-02-15T09:59:38;100949.75;;;11.93;100.00
1736;BME280;865;53.672;10.250;2024-02-15T10:02:06;100952.34;;;11.93;100.00
1736;BME280;865;53.672;10.250;2024-02-15T10:04:42;100948.75;;;11.98;100.00
1736;BME280;865;53.672;10.250;2024-02-15T10:07:09;100945.16;;;12.04;100.00
1736;BME280;865;53.672;10.250;2024-02-15T10:09:36;100952.31;;;11.96;100.00
1736;BME280;865;53.672;10.250;2024-02-15T10:12:09;100953.03;;;12.02;100.00
1736;BME280;865;53.672;10.250;2024-02-15T10:14:36;100955.53;;;12.07;100.00
1736;BME280;865;53.672;10.250;2024-02-15T10:17:06;100955.72;;;11.99;100.00
1736;BME280;865;53.672;10.250;2024-02-15T10:19:38;100957.19;;;12.11;100.00
1736;BME280;865;53.672;10.250;2024-02-15T10:22:09;100966.69;;;12.15;100.00
1736;BME280;865;53.672;10.250;2024-02-15T10:24:37;100964.97;;;12.14;100.00
1736;BME280;865;53.672;10.250;2024-02-15T10:27:05;100970.38;;;12.06;100.00
1736;BME280;865;53.672;10.250;2024-02-15T10:29:33;100968.69;;;12.04;100.00
1736;BME280;865;53.672;10.250;2024-02-15T10:32:03;100968.59;;;12.07;100.00
1736;BME280;865;53.672;10.250;2024-02-15T10:34:31;100963.59;;;11.98;100.00
1736;BME280;865;53.672;10.250;2024-02-15T10:37:14;100957.34;;;12.05;100.00
1736;BME280;865;53.672;10.250;2024-02-15T10:39:42;100953.91;;;12.01;100.00
1736;BME280;865;53.672;10.250;2024-02-15T10:42:09;100948.81;;;11.95;100.00
1736;BME280;865;53.672;10.250;2024-02-15T10:44:38;100946.22;;;11.95;100.00
1736;BME280;865;53.672;10.250;2024-02-15T10:47:07;100942.75;;;11.95;100.00
1736;BME280;865;53.672;10.250;2024-02-15T10:49:35;100940.25;;;11.90;100.00
1736;BME280;865;53.672;10.250;2024-02-15T10:52:05;100936.69;;;11.93;100.00
1736;BME280;865;53.672;10.250;2024-02-15T10:54:49;100929.81;;;11.89;100.00
1736;BME280;865;53.672;10.250;2024-02-15T10:57:21;100932.22;;;11.98;100.00
1736;BME280;865;53.672;10.250;2024-02-15T10:59:54;100934.03;;;11.96;100.00
1736;BME280;865;53.672;10.250;2024-02-15T11:02:31;100919.84;;;12.06;100.00
1736;BME280;865;53.672;10.250;2024-02-15T11:05:06;100916.38;;;12.05;100.00
1736;BME280;865;53.672;10.250;2024-02-15T11:07:38;100922.47;;;12.04;100.00
1736;BME280;865;53.672;10.250;2024-02-15T11:10:09;100919.75;;;12.09;100.00
1736;BME280;865;53.672;10.250;2024-02-15T11:12:37;100912.81;;;12.08;100.00
1736;BME280;865;53.672;10.250;2024-02-15T11:15:07;100916.03;;;12.19;100.00
1736;BME280;865;53.672;10.250;2024-02-15T11:20:06;100908.00;;;12.28;100.00
1736;BME280;865;53.672;10.250;2024-02-15T11:22:36;100910.66;;;12.25;100.00
1736;BME280;865;53.672;10.250;2024-02-15T11:25:03;100910.78;;;12.19;100.00
1736;BME280;865;53.672;10.250;2024-02-15T11:27:38;100904.41;;;12.31;100.00
1736;BME280;865;53.672;10.250;2024-02-15T11:30:06;100909.63;;;12.32;100.00
1736;BME280;865;53.672;10.250;2024-02-15T11:35:16;100903.31;;;12.41;100.00
1736;BME280;865;53.672;10.250;2024-02-15T11:37:50;100907.69;;;12.41;100.00
1736;BME280;865;53.672;10.250;2024-02-15T11:40:27;100908.16;;;12.21;100.00
1736;BME280;865;53.672;10.250;2024-02-15T11:43:00;100902.84;;;12.24;100.00
1736;BME280;865;53.672;10.250;2024-02-15T11:45:28;100909.00;;;12.23;100.00
1736;BME280;865;53.672;10.250;2024-02-15T11:48:13;100897.56;;;12.25;100.00
1736;BME280;865;53.672;10.250;2024-02-15T11:50:40;100898.47;;;12.24;100.00
1736;BME280;865;53.672;10.250;2024-02-15T11:53:08;100894.84;;;12.30;100.00
1736;BME280;865;53.672;10.250;2024-02-15T11:55:40;100889.72;;;12.25;100.00
1736;BME280;865;53.672;10.250;2024-02-15T11:58:09;100891.31;;;12.32;100.00
1736;BME280;865;53.672;10.250;2024-02-15T12:00:37;100891.53;;;12.23;100.00
1736;BME280;865;53.672;10.250;2024-02-15T12:03:23;100889.59;;;12.31;100.00
1736;BME280;865;53.672;10.250;2024-02-15T12:06:26;100889.59;;;12.31;100.00
1736;BME280;865;53.672;10.250;2024-02-15T12:09:12;100892.13;;;12.35;100.00
1736;BME280;865;53.672;10.250;2024-02-15T12:11:57;100891.19;;;12.37;100.00
1736;BME280;865;53.672;10.250;2024-02-15T12:14:43;100894.91;;;12.28;100.00
1736;BME280;865;53.672;10.250;2024-02-15T12:17:29;100895.63;;;12.34;100.00
1736;BME280;865;53.672;10.250;2024-02-15T12:20:14;100900.06;;;12.31;100.00
1736;BME280;865;53.672;10.250;2024-02-15T12:22:51;100887.94;;;12.27;100.00
1736;BME280;865;53.672;10.250;2024-02-15T12:25:19;100887.84;;;12.30;100.00
1736;BME280;865;53.672;10.250;2024-02-15T12:27:54;100876.78;;;12.19;100.00
1736;BME280;865;53.672;10.250;2024-02-15T12:30:22;100888.91;;;12.23;100.00
1736;BME280;865;53.672;10.250;2024-02-15T12:32:49;100881.16;;;12.20;100.00
1736;BME280;865;53.672;10.250;2024-02-15T12:35:23;100869.78;;;12.21;100.00
1736;BME280;865;53.672;10.250;2024-02-15T12:38:03;100867.88;;;12.28;100.00
1736;BME280;865;53.672;10.250;2024-02-15T12:40:33;100871.72;;;12.13;100.00
1736;BME280;865;53.672;10.250;2024-02-15T12:43:00;100863.78;;;12.16;100.00
1736;BME280;865;53.672;10.250;2024-02-15T12:45:28;100860.94;;;12.25;100.00
1736;BME280;865;53.672;10.250;2024-02-15T12:47:56;100859.38;;;12.20;100.00
1736;BME280;865;53.672;10.250;2024-02-15T12:50:28;100864.59;;;12.20;100.00
1736;BME280;865;53.672;10.250;2024-02-15T12:52:55;100864.63;;;12.18;100.00
1736;BME280;865;53.672;10.250;2024-02-15T12:55:35;100862.63;;;12.29;100.00
1736;BME280;865;53.672;10.250;2024-02-15T12:58:03;100868.47;;;12.39;100.00
1736;BME280;865;53.672;10.250;2024-02-15T13:00:31;100868.63;;;12.33;100.00
1736;BME280;865;53.672;10.250;2024-02-15T13:03:03;100873.00;;;12.31;100.00
1736;BME280;865;53.672;10.250;2024-02-15T13:05:31;100867.84;;;12.29;100.00
1736;BME280;865;53.672;10.250;2024-02-15T13:07:58;100860.16;;;12.23;100.00
1736;BME280;865;53.672;10.250;2024-02-15T13:10:25;100850.44;;;12.28;100.00
1736;BME280;865;53.672;10.250;2024-02-15T13:12:52;100858.47;;;12.21;100.00
1736;BME280;865;53.672;10.250;2024-02-15T13:15:19;100853.47;;;12.10;100.00